Aérodrome :
LOGIN :

S'inscrire | Disclaimer

   EN    FR    IT 

 










Légende :    VFR   VFR Marginal   IFR   IFR Intensif   IFR Très Intensif
Visi : 
Plafond : 
>= 8 km
>= 3000ft
5 à 8 km
1000 à 3000 ft
1500m à 5 km
500 à 1000 ft
800 à 1500m
200 à 500 ft
< 800m
< 200 ft
Symboles :   Orages  Brouillard  Fortes neiges  Fortes précipitations  Vent > 20 kt
SIGMETs :   Divers  Orages  Givrage  Turbulence  Onde Orograph.  Cendres Volcan.






- Altitude de l'aérodrome : 1585 ft
- Code IATA : SIR


LSGS - Sion

DERNIER METAR :
  • 061750Z 25013KT 9999 SCT080 23/09 Q1016

METARs EXPIRÉS :
  • 061720Z 24010KT 200V280 9999 SCT080 26/09 Q1016
  • 061650Z 25013KT 9999 SCT080 26/10 Q1015
  • 061620Z 24014KT 190V280 9999 SCT080 26/11 Q1015
  • 061550Z 24016KT 210V280 9999 SCT080 26/12 Q1015
  • 061520Z 25017KT 9999 SCT080 26/12 Q1014

TAF TAF LSGS
Valide du 06 à 15h jusqu'au 07 à 00h UTC


061425Z 0615/0624 25018G30KT 9999 SCT080
BECMG 0619/0621 VRB03KT CAVOK



MET'MAP, la Météo Aéronautique d'un coup d'oeil ! - Copyright ORBIFLY Décembre 2007 - Disclaimer

ORBIFLY MET'MAP TEAM :

Programmation & Développement : Alexandra Zaïnal
Sur une idée originale de : Baudouin d'Aumeries
Assistance à la programmation : Marc-Olivier Méhu
Soutien technique & logistique : Manuel Goepfert

Contact : metmap@orbifly.com




SOURCES & CREDITS :

   NOAA